• Join FlightAware (Why Join?)
  • Login
  • US Flag 
08:20PM EDT


 

Airport Tracker/Info


-or-


 

Live Flight TrackerFlight Track Log ✈ UAL481 ✈ 25-Jun-2013 ✈ KORD - KDEN

Flight Track Log - Related Links

Times and Time Zones

All times are in EDT time to prevent confusion due to time zone crossing. See the UAL481 flight status page for this flight to view local times or setup timezone preferences in your user account.

Time Position Orientation Groundspeed Altitude Reporting Facility
EDT Latitude Longitude Course Direction KTS MPH feet Rate Location/Type
12:52AM 42.0000 -87.9500 289° West 156 180 1,600  Level Chicago TRACON
12:53AM 42.0167 -88.0167 289° West 218 251 3,200 1,620 Climbing Chicago TRACON
12:54AM 42.0542 -88.1431 292° West 245 282 5,900 2,520 Climbing Chicago Center
12:55AM 42.1111 -88.2031 322° Northwest 260 299 9,800 3,360 Climbing Chicago Center
12:56AM 42.1206 -88.3047 277° West 284 327 12,800 2,880 Climbing Chicago Center
12:57AM 42.1167 -88.4131 267° West 292 336 15,700 2,820 Climbing Chicago Center
12:58AM 42.1103 -88.5203 265° West 291 335 18,600 2,640 Climbing Chicago Center
12:59AM 42.0733 -88.6403 248° West 344 396 21,100 1,920 Climbing Chicago Center
01:00AM 42.0325 -88.7611 246° West 357 411 22,600 1,740 Climbing Chicago Center
01:01AM 41.9847 -88.9183 248° West 380 437 24,700 1,980 Climbing Chicago Center
01:02AM 41.9431 -89.0528 247° West 392 451 26,700 1,320 Climbing Chicago Center
01:03AM 41.9006 -89.1931 248° West 406 467 27,400 1,260 Climbing Chicago Center
01:04AM 41.8581 -89.3406 249° West 424 488 29,300 1,200 Climbing Chicago Center
01:06AM 41.8175 -89.4847 249° West 418 481 29,900 600 Climbing Chicago Center
01:07AM 41.7767 -89.6322 250° West 434 499 30,600 840 Climbing Chicago Center
01:08AM 41.7347 -89.7853 250° West 441 507 31,700 1,020 Climbing Chicago Center
01:09AM 41.6953 -89.9369 251° West 437 503 32,700 1,080 Climbing Chicago Center
01:10AM 41.6572 -90.0917 252° West 439 505 33,900 960 Climbing Chicago Center
01:11AM 41.6211 -90.2428 252° West 433 498 34,700 840 Climbing Chicago Center
01:12AM 41.5794 -90.3975 250° West 439 505 35,600 600 Climbing Chicago Center
01:13AM 41.5381 -90.5472 250° West 434 499 36,000 180 Climbing Chicago Center
01:14AM 41.4981 -90.6942 250° West 426 490 36,000  Level Chicago Center
01:15AM 41.4581 -90.8458 251° West 433 498 36,000  Level Chicago Center
01:16AM 41.4094 -91.0275 250° West 435 501 36,000  Level Chicago Center
01:17AM 41.3686 -91.1767 250° West 432 497 36,000  Level Chicago Center
01:18AM 41.3481 -91.3350 260° West 438 504 36,000  Level Chicago Center
01:19AM 41.3461 -91.4786 269° West 436 502 36,000  Level Chicago Center
01:20AM 41.3428 -91.6403 268° West 438 504 36,000  Level Chicago Center
01:21AM 41.3394 -91.8022 268° West 439 505 36,000 60 Level Chicago Center
01:22AM 41.3369 -91.9661 269° West 444 511 36,200 660 Climbing Chicago Center
01:23AM 41.3325 -92.1264 268° West 438 504 37,400 840 Climbing Chicago Center
01:24AM 41.3286 -92.2836 268° West 430 495 37,900 240 Climbing Chicago Center
01:25AM 41.3242 -92.4533 268° West 428 493 38,000  Climbing Chicago Center
01:26AM 41.3200 -92.6081 268° West 425 489 38,000  Level Chicago Center
01:27AM 41.3169 -92.7664 269° West 431 496 38,100  Climbing Chicago Center
01:28AM 41.3347 -92.9236 279° West 434 499 38,000 -60 Descending Chicago Center
01:29AM 41.3531 -93.0767 279° West 426 490 38,000  Level Chicago Center
01:30AM 41.3744 -93.2625 279° West 428 493 38,000  Level Chicago Center
01:31AM 41.3886 -93.4186 277° West 429 494 38,000  Level Chicago Center
01:32AM 41.3981 -93.5731 275° West 426 490 38,000  Level Chicago Center
01:33AM 41.4078 -93.7278 275° West 425 489 38,000  Level Chicago Center
01:34AM 41.4189 -93.8822 276° West 424 488 38,000  Level Chicago Center
01:35AM 41.4275 -94.0633 274° West 420 483 38,000  Level Minneapolis Center
01:36AM 41.4269 -94.2178 270° West 420 483 38,000  Level Minneapolis Center
01:37AM 41.4181 -94.3664 265° West 418 481 38,000  Level Minneapolis Center
01:38AM 41.4086 -94.5214 265° West 419 482 38,000  Level Minneapolis Center
01:39AM 41.3992 -94.6747 265° West 417 480 38,000  Level Minneapolis Center
01:40AM 41.3892 -94.8283 265° West 415 478 38,000  Level Minneapolis Center
01:41AM 41.3786 -94.9822 265° West 416 479 38,000 -120 Level Minneapolis Center
01:42AM 41.3694 -95.1389 266° West 420 483 37,800 -600 Descending Minneapolis Center
01:43AM 41.3597 -95.2981 265° West 429 494 36,800 -960 Descending Minneapolis Center
01:44AM 41.3486 -95.4544 265° West 428 493 35,900 -1,080 Descending Minneapolis Center
01:45AM 41.3367 -95.6308 265° West 417 480 34,700 -960 Descending Minneapolis Center
01:46AM 41.3267 -95.7733 265° West 429 494 34,000 -360 Descending Minneapolis Center
01:47AM 41.3161 -95.9306 265° West 428 493 34,000  Level Minneapolis Center
01:48AM 41.3044 -96.0853 264° West 422 486 34,000  Level Minneapolis Center
01:49AM 41.2947 -96.2400 265° West 421 484 34,000  Level Minneapolis Center
01:50AM 41.2819 -96.3969 264° West 414 476 34,000  Level Minneapolis Center
01:51AM 41.2700 -96.5478 264° West 410 472 34,000  Level Minneapolis Center
01:52AM 41.2581 -96.6992 264° West 411 473 34,000  Level Minneapolis Center
01:53AM 41.2450 -96.8514 264° West 414 476 34,000  Level Minneapolis Center
01:54AM 41.2339 -97.0056 265° West 418 481 34,000  Level Minneapolis Center
01:55AM 41.2203 -97.1597 263° West 420 483 34,000  Level Minneapolis Center
01:56AM 41.2078 -97.3136 264° West 419 482 34,000  Level Minneapolis Center
01:57AM 41.1911 -97.5244 264° West 421 484 34,000  Level Minneapolis Center
01:58AM 41.1769 -97.6789 263° West 422 486 34,000  Level Minneapolis Center
01:59AM 41.1636 -97.8344 264° West 424 488 34,000  Level Minneapolis Center
02:00AM 41.1503 -97.9897 264° West 425 489 34,000  Level Minneapolis Center
02:01AM 41.1361 -98.1458 263° West 425 489 34,000  Level Minneapolis Center
02:02AM 41.1225 -98.3003 263° West 422 486 34,000  Level Minneapolis Center
02:03AM 41.1069 -98.4597 263° West 422 486 34,000  Level Minneapolis Center
02:04AM 41.0922 -98.6150 263° West 423 487 34,000  Level Minneapolis Center
02:05AM 41.0772 -98.7711 263° West 427 491 34,000  Level Minneapolis Center
02:06AM 41.0608 -98.9308 262° West 433 498 34,000  Level Minneapolis Center
02:07AM 41.0467 -99.0881 263° West 431 496 34,000  Level Minneapolis Center
02:08AM 41.0336 -99.2231 263° West 429 494 34,000  Level Minneapolis Center
02:09AM 41.0181 -99.3814 263° West 431 496 34,000  Level Minneapolis Center
02:10AM 40.9989 -99.5717 262° West 434 499 34,000  Level Minneapolis Center
02:11AM 40.9831 -99.7289 262° West 432 497 34,000  Level Minneapolis Center
02:12AM 40.9664 -99.8867 262° West 433 498 34,000  Level Minneapolis Center
02:13AM 40.9497 -100.0450 262° West 434 499 34,000  Level Minneapolis Center
02:14AM 40.9319 -100.2017 262° West 432 497 34,000  Level Minneapolis Center
02:15AM 40.9147 -100.3600 262° West 434 499 34,000  Level Minneapolis Center
02:16AM 40.8972 -100.5183 262° West 435 501 34,000  Level Minneapolis Center
02:17AM 40.8803 -100.6767 262° West 435 501 34,000  Level Minneapolis Center
02:19AM 40.8553 -100.8806 261° West 445 512 34,000  Level Denver Center
02:20AM 40.8344 -101.0542 261° West 434 499 34,000  Level Denver Center
02:21AM 40.8172 -101.2058 262° West 437 503 34,000  Level Denver Center
02:22AM 40.7997 -101.3578 261° West 439 505 34,000  Level Denver Center
02:23AM 40.7783 -101.5342 261° West 436 502 34,000  Level Denver Center
02:24AM 40.7603 -101.6853 261° West 437 503 34,000  Level Denver Center
02:25AM 40.7411 -101.8367 261° West 436 502 34,000  Level Denver Center
02:26AM 40.7192 -102.0139 261° West 440 506 34,000  Level Denver Center
02:27AM 40.6997 -102.1667 261° West 442 509 34,000  Level Denver Center
02:28AM 40.6794 -102.3203 260° West 444 511 34,000  Level Denver Center
02:29AM 40.6561 -102.5008 260° West 447 514 34,000  Level Denver Center
02:30AM 40.6356 -102.6589 260° West 447 514 34,000  Level Denver Center
02:31AM 40.6136 -102.8203 260° West 449 517 34,000  Level Denver Center
02:32AM 40.5917 -102.9817 260° West 449 517 34,000  Level Denver Center
02:33AM 40.5708 -103.1433 260° West 451 519 34,000 -1,200 Level Denver Center
02:34AM 40.5483 -103.3039 260° West 450 518 31,600 -2,640 Descending Denver Center
02:35AM 40.5269 -103.4686 260° West 458 527 28,700 -2,820 Descending Denver Center
02:36AM 40.4861 -103.6281 251° West 467 537 26,000 -2,940 Descending Denver Center
02:37AM 40.4269 -103.8019 246° West 481 554 22,800 -3,000 Descending Denver Center
02:38AM 40.3764 -103.9506 246° West 444 511 20,000 -2,520 Descending Denver Center
02:39AM 40.3108 -104.0747 235° Southwest 416 479 17,200 -2,940 Descending Denver Center
02:40AM 40.2394 -104.2100 235° Southwest 370 426 13,600 -2,940 Descending Denver Center
02:41AM 40.1819 -104.3186 235° Southwest 363 418 11,300 -1,440 Descending Denver Center
02:42AM 40.1275 -104.4197 235° Southwest 340 391 10,700 -780 Descending Denver Center
02:43AM 40.0800 -104.5069 235° Southwest 299 344 9,800 -1,260 Descending Denver Center
02:44AM 40.0342 -104.5950 236° Southwest 295 339 8,200 -1,380 Descending Denver Center
02:45AM 39.9942 -104.6703 235° Southwest 255 293 7,100 -960 Descending Denver Center
02:46AM 39.9533 -104.6956 205° Southwest 168 193 6,300 -840 Descending Denver Center